KTUS/TUS METAR and TAF weather

Enter ICAO airport designator
Station Type Date Time Source
KTUS METAR 2021/07/22 20:53 UTC NOAA

KTUS 222053Z 26010KT 10SM CLR 37/17 A3004 RMK AO2 LTG DSNT SE-W SLP117 T03670167 58013


Station Type Date Time Source
KTUS Decoded METAR 2021/07/22 20:53 UTC NOAA

TUCSON INTERNATIONAL AIRPORT , AZ, United States (KTUS) 32-08N 110-57W 786M
Jul 22, 2021 - 04:53 PM EDT / 2021.07.22 2053 UTC
Wind: from the W (260 degrees) at 12 MPH (10 KT):0
Visibility: 10 mile(s):0
Sky conditions: clear
Weather: Lightning observed
Temperature: 98.1 F (36.7 C)
Heat index: 99.1 F (37.3 C):1
Dew Point: 62.1 F (16.7 C)
Relative Humidity: 30%
Pressure (altimeter): 30.04 in. Hg (1017 hPa)
Pressure tendency: 0.04 inches (1.3 hPa) lower than three hours ago
ob: KTUS 222053Z 26010KT 10SM CLR 37/17 A3004 RMK AO2 LTG DSNT SE-W SLP117 T03670167 58013
cycle: 21

Station Type Date Time Source
KTUS TAF 2021/07/24 18:30 UTC NOAA

TAF KTUS 241728Z 2418/2518 15005KT P6SM -SHRA FEW040 OVC080
TEMPO 2418/2421 5SM SHRA BKN040
FM242100 30005KT P6SM -SHRA VCTS BKN060CB BKN100
FM250100 15008KT P6SM VCSH BKN060 OVC100
FM250500 13006KT P6SM -SHRA BKN050 OVC080
FM251500 13005KT P6SM VCSH BKN100

Example: see airport list